createdAt,value
2022-09-15T00:02:11.702Z,8.70
2022-09-15T00:04:42.099Z,8.05
2022-09-15T00:07:12.233Z,10.10
2022-09-15T00:09:42.447Z,7.03
2022-09-15T00:12:12.597Z,9.20
2022-09-15T00:14:42.850Z,9.90
2022-09-15T00:17:15.625Z,12.27
2022-09-15T00:19:45.869Z,10.48
2022-09-15T00:22:16.107Z,11.60
2022-09-15T00:24:46.290Z,10.68
2022-09-15T00:27:16.442Z,10.88
2022-09-15T00:29:46.917Z,8.32
2022-09-15T00:32:19.642Z,12.77
2022-09-15T00:34:49.756Z,10.48
2022-09-15T00:37:20.171Z,9.88
2022-09-15T00:39:50.450Z,10.77
2022-09-15T00:42:21.955Z,10.88
2022-09-15T00:44:58.745Z,10.13
2022-09-15T00:47:36.834Z,10.60
2022-09-15T00:50:10.957Z,10.88
2022-09-15T00:52:47.360Z,11.35
2022-09-15T00:55:22.731Z,10.95
2022-09-15T00:57:56.715Z,13.10
2022-09-15T01:00:32.486Z,11.00
2022-09-15T01:03:05.563Z,11.00
2022-09-15T01:05:41.306Z,12.48
2022-09-15T01:08:17.245Z,10.32
2022-09-15T01:10:47.835Z,9.30
2022-09-15T01:13:18.525Z,10.40
2022-09-15T01:15:58.662Z,9.50
2022-09-15T01:18:38.036Z,11.85
2022-09-15T01:21:20.380Z,13.00
2022-09-15T01:24:32.526Z,16.15
2022-09-15T01:27:42.036Z,12.40
2022-09-15T01:30:18.376Z,10.20
2022-09-15T01:33:12.708Z,12.82
2022-09-15T01:35:58.057Z,16.50
2022-09-15T01:38:48.252Z,12.15
2022-09-15T01:41:21.066Z,10.73
2022-09-15T01:43:57.596Z,13.32
2022-09-15T01:46:34.944Z,18.38
2022-09-15T01:49:07.032Z,16.58
2022-09-15T01:51:38.857Z,13.95
2022-09-15T01:54:10.658Z,12.90
2022-09-15T01:56:42.161Z,12.48
2022-09-15T01:59:12.520Z,13.80
2022-09-15T02:01:51.874Z,16.80
2022-09-15T02:04:28.395Z,13.52
2022-09-15T02:07:02.629Z,14.82
2022-09-15T02:09:38.403Z,12.85
2022-09-15T02:12:15.290Z,13.75
2022-09-15T02:14:55.591Z,12.27
2022-09-15T02:17:30.541Z,14.93
2022-09-15T02:20:11.547Z,14.60
2022-09-15T02:22:45.341Z,14.30
2022-09-15T02:25:21.265Z,13.63
2022-09-15T02:27:54.204Z,17.27
2022-09-15T02:30:25.210Z,15.43
2022-09-15T02:33:00.759Z,17.83
2022-09-15T02:35:32.912Z,14.82
2022-09-15T02:38:04.899Z,15.40
2022-09-15T02:40:36.206Z,15.77
2022-09-15T02:43:07.194Z,18.67
2022-09-15T02:45:37.639Z,17.58
2022-09-15T02:48:11.878Z,18.17
2022-09-15T02:50:42.534Z,18.88
2022-09-15T02:53:12.659Z,18.83
2022-09-15T02:55:42.899Z,18.77
2022-09-15T02:58:13.043Z,18.33
2022-09-15T03:00:43.300Z,19.33
2022-09-15T03:03:16.228Z,19.40
2022-09-15T03:05:46.399Z,19.67
2022-09-15T03:08:16.873Z,21.50
2022-09-15T03:10:47.301Z,20.00
2022-09-15T03:13:18.612Z,17.60
2022-09-15T03:15:49.163Z,22.05
2022-09-15T03:18:22.008Z,18.77
2022-09-15T03:20:52.239Z,21.40
2022-09-15T03:23:22.397Z,22.50
2022-09-15T03:25:52.823Z,18.00
2022-09-15T03:28:23.257Z,17.67
2022-09-15T03:30:53.434Z,22.02
2022-09-15T03:33:27.300Z,21.38
2022-09-15T03:35:57.593Z,19.90
2022-09-15T03:38:27.907Z,24.13
2022-09-15T03:41:07.771Z,22.80
2022-09-15T03:43:39.561Z,21.55
2022-09-15T03:46:11.693Z,24.40
2022-09-15T03:48:44.650Z,23.45
2022-09-15T03:51:15.464Z,23.25
2022-09-15T03:53:45.954Z,23.70
2022-09-15T03:56:24.965Z,23.20
2022-09-15T03:58:55.995Z,24.33
2022-09-15T04:01:26.513Z,18.92
2022-09-15T04:03:59.628Z,19.83
2022-09-15T04:06:30.092Z,21.90
2022-09-15T04:09:01.884Z,20.20
2022-09-15T04:11:32.010Z,21.33
2022-09-15T04:14:02.474Z,19.88
2022-09-15T04:16:32.763Z,22.67
2022-09-15T04:19:05.450Z,23.23
2022-09-15T04:21:35.539Z,22.65
2022-09-15T04:24:06.582Z,20.75
2022-09-15T04:26:38.356Z,20.50
2022-09-15T04:29:14.126Z,21.50
2022-09-15T04:31:44.813Z,20.77
2022-09-15T04:34:17.708Z,17.60
2022-09-15T04:36:47.835Z,16.83
2022-09-15T04:39:17.839Z,18.95
2022-09-15T04:41:47.869Z,18.52
2022-09-15T04:44:17.962Z,18.90
2022-09-15T04:46:48.877Z,18.00
2022-09-15T04:49:21.723Z,20.95
2022-09-15T04:51:53.265Z,18.17
2022-09-15T04:54:23.721Z,16.00
2022-09-15T04:56:53.840Z,19.33
2022-09-15T04:59:23.995Z,15.27
2022-09-15T05:01:57.930Z,16.65
2022-09-15T05:04:30.660Z,16.55
2022-09-15T05:07:01.123Z,20.38
2022-09-15T05:09:31.359Z,19.40
2022-09-15T05:12:01.414Z,16.10
2022-09-15T05:14:31.891Z,21.67
2022-09-15T05:17:02.049Z,22.55
2022-09-15T05:19:35.133Z,17.70
2022-09-15T05:22:05.457Z,17.10
2022-09-15T05:24:35.519Z,18.25
2022-09-15T05:27:05.768Z,21.30
2022-09-15T05:29:35.826Z,18.90
2022-09-15T05:32:06.183Z,20.80
2022-09-15T05:34:38.784Z,18.08
2022-09-15T05:37:09.607Z,18.48
2022-09-15T05:39:41.153Z,20.63
2022-09-15T05:42:11.665Z,20.33
2022-09-15T05:44:41.716Z,22.90
2022-09-15T05:47:11.834Z,21.33
2022-09-15T05:49:44.454Z,21.92
2022-09-15T05:52:14.462Z,19.98
2022-09-15T05:54:44.409Z,22.63
2022-09-15T05:57:14.382Z,21.30
2022-09-15T05:59:44.364Z,23.13
2022-09-15T06:02:14.504Z,20.30
2022-09-15T06:04:47.539Z,23.58
2022-09-15T06:07:19.442Z,22.95
2022-09-15T06:09:49.442Z,25.35
2022-09-15T06:12:19.488Z,25.13
2022-09-15T06:14:51.072Z,22.40
2022-09-15T06:17:22.379Z,20.88
2022-09-15T06:19:55.109Z,28.02
2022-09-15T06:22:25.212Z,27.75
2022-09-15T06:24:55.273Z,31.60
2022-09-15T06:27:25.343Z,25.88
2022-09-15T06:29:55.612Z,26.55
2022-09-15T06:32:26.061Z,24.75
2022-09-15T06:34:58.645Z,28.92
2022-09-15T06:37:29.063Z,21.88
2022-09-15T06:39:59.340Z,24.95
2022-09-15T06:42:29.642Z,23.73
2022-09-15T06:44:59.713Z,28.15
2022-09-15T06:47:34.170Z,29.92
2022-09-15T06:50:07.442Z,24.13
2022-09-15T06:52:37.655Z,19.08
2022-09-15T06:55:08.498Z,17.63
2022-09-15T07:00:10.302Z,21.60
2022-09-15T07:02:40.533Z,30.40
2022-09-15T07:05:13.738Z,33.80
2022-09-15T07:07:43.923Z,26.00
2022-09-15T07:10:13.948Z,22.05
2022-09-15T07:12:44.038Z,27.23
2022-09-15T07:15:14.625Z,24.60
2022-09-15T07:17:44.711Z,23.60
2022-09-15T07:20:17.654Z,21.92
2022-09-15T07:22:47.809Z,23.15
2022-09-15T07:25:18.052Z,24.55
2022-09-15T07:27:48.218Z,26.30
2022-09-15T07:30:18.994Z,24.02
2022-09-15T07:35:21.943Z,18.52
2022-09-15T07:37:52.141Z,21.73
2022-09-15T07:40:22.311Z,23.42
2022-09-15T07:42:52.613Z,20.65
2022-09-15T07:45:22.878Z,19.90
2022-09-15T07:47:53.042Z,18.70
2022-09-15T07:50:25.744Z,18.10
2022-09-15T07:52:59.019Z,19.02
2022-09-15T07:55:30.538Z,16.73
2022-09-15T07:58:01.456Z,16.17
2022-09-15T08:00:31.849Z,25.00
2022-09-15T08:03:02.132Z,15.40
2022-09-15T08:05:39.423Z,12.45
2022-09-15T08:08:12.060Z,13.57
2022-09-15T08:10:43.199Z,12.05
2022-09-15T08:13:13.356Z,15.30
2022-09-15T08:15:44.179Z,14.23
2022-09-15T08:18:14.467Z,13.88
2022-09-15T08:20:47.606Z,15.30
2022-09-15T08:23:17.930Z,12.85
2022-09-15T08:25:48.465Z,12.38
2022-09-15T08:28:18.750Z,23.48
2022-09-15T08:30:48.859Z,16.52
2022-09-15T08:33:19.218Z,17.33
2022-09-15T08:35:51.934Z,27.55
2022-09-15T08:38:22.049Z,21.65
2022-09-15T08:40:52.152Z,15.73
2022-09-15T08:43:28.395Z,11.50
2022-09-15T08:46:03.493Z,14.77
2022-09-15T08:48:39.530Z,12.00
2022-09-15T08:51:18.487Z,12.18
2022-09-15T08:53:53.615Z,9.07
2022-09-15T08:56:23.793Z,10.60
2022-09-15T08:59:04.827Z,12.18
2022-09-15T09:01:48.919Z,13.48
2022-09-15T09:04:31.299Z,15.15
2022-09-15T09:07:11.402Z,84.50
2022-09-15T09:09:48.799Z,14.70
2022-09-15T09:12:38.106Z,9.77
2022-09-15T09:15:24.363Z,9.98
2022-09-15T09:18:36.633Z,9.82
2022-09-15T09:21:16.831Z,11.77
2022-09-15T09:23:52.207Z,10.20
2022-09-15T09:26:23.933Z,8.95
2022-09-15T09:29:01.163Z,8.35
2022-09-15T09:34:13.097Z,9.15
2022-09-15T09:36:43.236Z,10.50
2022-09-15T09:39:16.684Z,9.43
2022-09-15T09:41:47.813Z,10.55
2022-09-15T09:44:19.313Z,13.80
2022-09-15T09:46:52.026Z,8.48
2022-09-15T09:49:25.964Z,9.25
2022-09-15T09:51:59.309Z,9.38
2022-09-15T09:54:31.280Z,7.32
2022-09-15T09:57:30.861Z,7.18
2022-09-15T10:00:01.148Z,6.28
2022-09-15T10:02:31.803Z,6.43
2022-09-15T10:05:20.973Z,7.63
2022-09-15T10:07:51.663Z,13.60
2022-09-15T10:10:24.575Z,8.25
2022-09-15T10:12:59.410Z,6.57
2022-09-15T10:15:32.015Z,5.65
2022-09-15T10:18:03.399Z,4.50
2022-09-15T10:20:39.135Z,6.20
2022-09-15T10:23:26.469Z,4.28
2022-09-15T10:26:00.608Z,4.10
2022-09-15T10:28:33.436Z,4.78
2022-09-15T10:31:11.028Z,4.47
2022-09-15T10:33:42.799Z,5.82
2022-09-15T10:36:19.825Z,5.63
2022-09-15T10:38:52.261Z,6.35
2022-09-15T10:41:28.676Z,4.43
2022-09-15T10:44:23.582Z,4.57
2022-09-15T10:47:05.938Z,2.00
2022-09-15T10:49:47.614Z,4.15
2022-09-15T10:52:30.918Z,4.80
2022-09-15T10:55:13.248Z,4.00
2022-09-15T10:58:01.475Z,10.52
2022-09-15T11:00:39.830Z,6.65
2022-09-15T11:03:36.757Z,8.10
2022-09-15T11:06:18.083Z,6.45
2022-09-15T11:09:12.024Z,4.78
2022-09-15T11:11:51.716Z,6.57
2022-09-15T11:14:49.052Z,5.43
2022-09-15T11:17:43.728Z,2.53
2022-09-15T11:20:31.806Z,6.45
2022-09-15T11:23:06.737Z,10.95
2022-09-15T11:25:41.858Z,8.57
2022-09-15T11:28:17.092Z,6.50
2022-09-15T11:30:53.370Z,4.45
2022-09-15T11:33:32.102Z,6.00
2022-09-15T11:36:07.898Z,10.30
2022-09-15T11:38:48.098Z,11.50
2022-09-15T11:41:28.453Z,8.63
2022-09-15T11:44:17.073Z,3.08
2022-09-15T11:47:17.430Z,2.55
2022-09-15T11:49:56.094Z,3.10
2022-09-15T11:52:45.890Z,4.68
2022-09-15T11:55:26.305Z,4.40
2022-09-15T11:58:06.256Z,4.03
2022-09-15T12:00:41.525Z,4.75
2022-09-15T12:03:20.880Z,4.43
2022-09-15T12:05:57.594Z,3.38
2022-09-15T12:08:34.904Z,3.30
2022-09-15T12:11:10.052Z,2.47
2022-09-15T12:13:40.880Z,3.42
2022-09-15T12:16:12.021Z,4.32
2022-09-15T12:18:47.427Z,6.50
2022-09-15T12:21:26.204Z,3.78
2022-09-15T12:24:02.997Z,2.67
2022-09-15T12:26:36.317Z,1.80
2022-09-15T12:29:07.902Z,3.75
2022-09-15T12:31:40.032Z,4.30
2022-09-15T12:34:36.499Z,3.55
2022-09-15T12:37:17.625Z,5.80
2022-09-15T12:39:48.916Z,3.50
2022-09-15T12:42:23.917Z,3.97
2022-09-15T12:44:57.490Z,4.68
2022-09-15T12:47:32.932Z,5.57
2022-09-15T12:50:24.758Z,3.35
2022-09-15T12:53:01.336Z,5.70
2022-09-15T12:55:35.529Z,2.67
2022-09-15T12:58:13.964Z,3.78
2022-09-15T13:01:07.228Z,4.68
2022-09-15T13:04:07.691Z,3.08
2022-09-15T13:06:38.652Z,3.90
2022-09-15T13:09:32.304Z,4.13
2022-09-15T13:12:06.845Z,7.65
2022-09-15T13:14:42.162Z,6.28
2022-09-15T13:17:20.115Z,11.93
2022-09-15T13:19:53.714Z,4.53
2022-09-15T13:22:30.477Z,7.93
2022-09-15T13:25:10.937Z,6.32
2022-09-15T13:27:43.892Z,3.45
2022-09-15T13:30:34.346Z,3.42
2022-09-15T13:33:14.075Z,4.18
2022-09-15T13:36:03.728Z,5.13
2022-09-15T13:39:01.113Z,21.90
2022-09-15T13:42:03.555Z,17.80
2022-09-15T13:45:06.437Z,14.05
2022-09-15T13:47:56.833Z,6.65
2022-09-15T13:50:32.627Z,3.97
2022-09-15T13:53:29.535Z,4.32
2022-09-15T13:55:59.744Z,2.83
2022-09-15T14:01:25.447Z,2.60
2022-09-15T14:03:57.995Z,3.63
2022-09-15T14:06:31.279Z,2.97
2022-09-15T14:09:05.717Z,2.60
2022-09-15T14:11:38.537Z,7.32
2022-09-15T14:14:32.173Z,3.60
2022-09-15T14:17:02.427Z,2.60
2022-09-15T14:19:35.945Z,5.72
2022-09-15T14:22:26.293Z,1.80
2022-09-15T14:24:57.256Z,3.05
2022-09-15T14:27:30.469Z,2.97
2022-09-15T14:30:07.500Z,4.22
2022-09-15T14:32:42.396Z,3.15
2022-09-15T14:35:20.186Z,1.85
2022-09-15T14:37:52.834Z,5.88
2022-09-15T14:40:27.860Z,4.63
2022-09-15T14:42:58.669Z,3.80
2022-09-15T14:48:30.942Z,3.53
2022-09-15T14:51:05.623Z,4.95
2022-09-15T14:53:39.599Z,4.40
2022-09-15T14:56:14.503Z,2.53
2022-09-15T14:58:48.395Z,18.38
2022-09-15T15:01:26.142Z,3.60
2022-09-15T15:04:01.307Z,6.60
2022-09-15T15:06:37.425Z,5.00
2022-09-15T15:09:12.901Z,3.67
2022-09-15T15:11:45.093Z,5.95
2022-09-15T15:14:16.709Z,2.85
2022-09-15T15:16:59.649Z,3.90
2022-09-15T15:19:42.009Z,2.75
2022-09-15T15:22:27.170Z,3.83
2022-09-15T15:24:57.728Z,19.80
2022-09-15T15:30:30.607Z,3.53
2022-09-15T15:33:05.702Z,4.57
2022-09-15T15:35:37.181Z,5.93
2022-09-15T15:38:10.100Z,4.93
2022-09-15T15:40:42.060Z,3.53
2022-09-15T15:43:24.100Z,3.58
2022-09-15T15:45:58.303Z,5.65
2022-09-15T15:48:37.350Z,2.78
2022-09-15T15:51:09.526Z,4.22
2022-09-15T15:53:40.309Z,2.90
2022-09-15T15:56:11.382Z,5.25
2022-09-15T15:58:41.504Z,3.03
2022-09-15T16:01:14.734Z,1.48
2022-09-15T16:03:47.935Z,1.83
2022-09-15T16:06:18.587Z,2.42
2022-09-15T16:08:49.609Z,4.45
2022-09-15T16:11:21.124Z,2.80
2022-09-15T16:13:51.663Z,1.77
2022-09-15T16:18:55.593Z,2.55
2022-09-15T16:21:39.253Z,9.95
2022-09-15T16:24:14.505Z,4.07
2022-09-15T16:26:45.196Z,2.47
2022-09-15T16:31:45.596Z,2.28
2022-09-15T16:34:20.578Z,3.03
2022-09-15T16:36:50.771Z,2.50
2022-09-15T16:39:21.117Z,2.42
2022-09-15T16:41:51.188Z,3.28
2022-09-15T16:44:22.753Z,2.60
2022-09-15T16:46:53.007Z,3.20
2022-09-15T16:49:26.235Z,3.75
2022-09-15T16:51:56.487Z,2.20
2022-09-15T16:54:26.646Z,3.88
2022-09-15T16:56:56.873Z,4.07
2022-09-15T16:59:27.215Z,4.97
2022-09-15T17:01:57.856Z,3.40
2022-09-15T17:04:30.788Z,3.58
2022-09-15T17:07:00.941Z,6.13
2022-09-15T17:09:31.126Z,5.15
2022-09-15T17:12:01.410Z,6.18
2022-09-15T17:14:31.816Z,4.10
2022-09-15T17:17:02.034Z,2.70
2022-09-15T17:19:34.787Z,4.82
2022-09-15T17:22:04.989Z,4.18
2022-09-15T17:24:35.133Z,3.05
2022-09-15T17:27:05.290Z,2.22
2022-09-15T17:29:36.736Z,7.60
2022-09-15T17:32:07.027Z,3.53
2022-09-15T17:34:39.879Z,5.80
2022-09-15T17:37:10.027Z,2.33
2022-09-15T17:39:40.230Z,3.53
2022-09-15T17:42:12.543Z,8.63
2022-09-15T17:44:42.816Z,22.08
2022-09-15T17:47:13.190Z,3.42
2022-09-15T17:49:46.051Z,3.67
2022-09-15T17:52:16.226Z,5.50
2022-09-15T17:54:46.663Z,2.92
2022-09-15T17:57:16.866Z,4.43
2022-09-15T17:59:47.167Z,4.28
2022-09-15T18:02:21.575Z,5.95
2022-09-15T18:04:54.342Z,4.85
2022-09-15T18:07:25.815Z,5.90
2022-09-15T18:09:55.948Z,6.53
2022-09-15T18:12:26.278Z,5.38
2022-09-15T18:14:56.492Z,3.55
2022-09-15T18:17:26.672Z,17.23
2022-09-15T18:19:59.742Z,5.07
2022-09-15T18:22:29.860Z,8.60
2022-09-15T18:25:00.077Z,12.25
2022-09-15T18:27:30.169Z,8.80
2022-09-15T18:30:01.999Z,3.45
2022-09-15T18:32:33.254Z,3.90
2022-09-15T18:35:06.292Z,5.75
2022-09-15T18:37:36.461Z,3.08
2022-09-15T18:40:08.767Z,3.47
2022-09-15T18:42:39.196Z,2.70
2022-09-15T18:45:12.351Z,4.15
2022-09-15T18:47:43.152Z,3.95
2022-09-15T18:52:46.975Z,3.15
2022-09-15T18:55:20.658Z,10.75
2022-09-15T18:57:51.983Z,19.48
2022-09-15T19:00:24.997Z,3.60
2022-09-15T19:03:00.142Z,5.63
2022-09-15T19:05:33.937Z,20.30
2022-09-15T19:08:04.975Z,7.18
2022-09-15T19:10:35.483Z,8.27
2022-09-15T19:13:05.752Z,5.20
2022-09-15T19:15:36.579Z,3.10
2022-09-15T19:18:07.443Z,5.03
2022-09-15T19:20:40.423Z,4.68
2022-09-15T19:23:11.175Z,6.82
2022-09-15T19:28:13.879Z,6.85
2022-09-15T19:30:44.202Z,2.22
2022-09-15T19:33:14.559Z,4.35
2022-09-15T19:35:53.283Z,6.00
2022-09-15T19:38:30.484Z,3.78
2022-09-15T19:41:06.644Z,6.88
2022-09-15T19:43:40.557Z,2.78
2022-09-15T19:46:15.945Z,3.45
2022-09-15T19:48:49.489Z,4.10
2022-09-15T19:51:23.802Z,3.90
2022-09-15T19:54:01.990Z,4.15
2022-09-15T19:56:32.882Z,5.38
2022-09-15T19:59:03.331Z,7.25
2022-09-15T20:01:34.361Z,3.90
2022-09-15T20:04:05.717Z,5.43
2022-09-15T20:06:39.214Z,2.28
2022-09-15T20:09:10.321Z,3.13
2022-09-15T20:11:40.449Z,3.50
2022-09-15T20:14:10.987Z,3.90
2022-09-15T20:16:41.226Z,2.60
2022-09-15T20:19:11.824Z,3.88
2022-09-15T20:21:51.643Z,2.83
2022-09-15T20:24:23.874Z,3.22
2022-09-15T20:26:54.630Z,6.10
2022-09-15T20:29:25.054Z,5.50
2022-09-15T20:31:55.429Z,4.82
2022-09-15T20:34:25.746Z,6.40
2022-09-15T20:36:59.163Z,1.63
2022-09-15T20:39:29.344Z,3.03
2022-09-15T20:41:59.500Z,4.43
2022-09-15T20:44:29.644Z,2.72
2022-09-15T20:46:59.749Z,7.57
2022-09-15T20:49:29.909Z,3.00
2022-09-15T20:52:02.636Z,4.30
2022-09-15T20:54:32.692Z,4.47
2022-09-15T20:57:02.780Z,4.20
2022-09-15T20:59:32.839Z,6.45
2022-09-15T21:02:04.844Z,4.30
2022-09-15T21:04:35.455Z,5.05
2022-09-15T21:07:08.274Z,5.57
2022-09-15T21:09:38.404Z,4.20
2022-09-15T21:12:10.221Z,4.40
2022-09-15T21:14:40.419Z,6.35
2022-09-15T21:17:11.320Z,3.97
2022-09-15T21:19:41.340Z,10.10
2022-09-15T21:22:14.057Z,6.68
2022-09-15T21:24:44.126Z,5.50
2022-09-15T21:27:30.745Z,3.00
2022-09-15T21:30:00.880Z,4.88
2022-09-15T21:32:31.341Z,2.63
2022-09-15T21:35:01.488Z,3.78
2022-09-15T21:37:34.439Z,4.35
2022-09-15T21:40:05.198Z,4.82
2022-09-15T21:45:07.669Z,4.05
2022-09-15T21:47:38.273Z,5.63
2022-09-15T21:50:09.317Z,4.70
2022-09-15T21:52:42.880Z,4.47
2022-09-15T21:55:13.311Z,6.50
2022-09-15T21:57:43.470Z,3.15
2022-09-15T22:00:15.624Z,3.92
2022-09-15T22:02:45.861Z,3.00
2022-09-15T22:05:16.093Z,5.95
2022-09-15T22:07:48.939Z,5.78
2022-09-15T22:10:19.404Z,2.05
2022-09-15T22:12:50.023Z,2.13
2022-09-15T22:15:20.390Z,4.80
2022-09-15T22:17:50.786Z,5.65
2022-09-15T22:20:21.604Z,2.72
2022-09-15T22:22:54.848Z,3.30
2022-09-15T22:25:25.498Z,2.33
2022-09-15T22:27:55.750Z,4.07
2022-09-15T22:30:25.939Z,3.50
2022-09-15T22:32:56.547Z,3.67
2022-09-15T22:35:26.725Z,3.92
2022-09-15T22:37:59.490Z,3.47
2022-09-15T22:40:29.807Z,3.10
2022-09-15T22:43:00.081Z,10.23
2022-09-15T22:45:30.099Z,4.70
2022-09-15T22:48:00.507Z,2.45
2022-09-15T22:50:30.493Z,5.03
2022-09-15T22:53:03.354Z,3.10
2022-09-15T22:55:34.256Z,3.65
2022-09-15T22:58:04.533Z,4.93
2022-09-15T23:00:34.902Z,3.40
2022-09-15T23:03:05.177Z,4.85
2022-09-15T23:05:35.401Z,3.58
2022-09-15T23:08:08.135Z,7.13
2022-09-15T23:10:38.131Z,4.25
2022-09-15T23:13:08.193Z,2.47
2022-09-15T23:15:38.216Z,3.65
2022-09-15T23:18:08.370Z,6.38
2022-09-15T23:20:39.835Z,2.78
2022-09-15T23:23:12.695Z,5.57
2022-09-15T23:25:42.799Z,3.22
2022-09-15T23:28:12.938Z,2.67
2022-09-15T23:30:43.051Z,3.80
2022-09-15T23:33:13.177Z,5.32
2022-09-15T23:35:43.260Z,3.00
2022-09-15T23:38:16.986Z,3.50
2022-09-15T23:40:48.419Z,4.50
2022-09-15T23:43:18.707Z,2.45
2022-09-15T23:45:51.283Z,3.83
2022-09-15T23:48:22.647Z,4.05
2022-09-15T23:50:52.863Z,2.25
2022-09-15T23:53:26.102Z,3.83
2022-09-15T23:55:56.187Z,4.07
2022-09-15T23:58:26.582Z,4.03
